Terminal Aerodrome Forecast
Issued by NWS Northern Indiana

Home | Current Version | Previous Version | Graphics & Text | Print | Product List | Glossary On
Versions: 1 2 3 4 5 6 7 8 9 10 11 12 13 14 15 16
013
FTUS43 KIWX 100325 AAA
TAFFWA
TAF AMD
KFWA 100325Z 1003/1024 28015G22KT 6SM -SHSN SCT015 OVC022
      TEMPO 1005/1007 4SM -SHSN BKN015
     FM100700 30013G21KT 4SM -SHSN OVC015
      TEMPO 1007/1011 2SM -SHSN
     FM101400 30014G22KT 4SM -SHSN OVC020=

USA.gov is the U.S. government's official web portal to all federal, state and local government web resources and services.